Flight Track Log - Related Links

Times and Time Zones

All times are in EDT time to prevent confusion due to time zone crossing. See the SWA1535 flight status page for this flight to view local times or setup timezone preferences in your user account.

Time Position Orientation Groundspeed Altitude Reporting Facility
EDT Latitude Longitude Course Direction KTS MPH feet Rate Location/Type
Wed 10:33:34 AM 41.8000 -87.7667 66° East 147 169 2,100  Level Chicago TRACON
Wed 10:34:28 AM 41.8167 -87.7167 66° East 219 252 4,000 2,200 Climbing Chicago TRACON
Wed 10:35:34 AM 41.8167 -87.6167 90° East 257 296 6,500 2,505 Climbing Chicago TRACON
Wed 10:35:59 AM 41.8194 -87.5867 83° East 241 277 7,800 3,310 Climbing Chicago Center
Wed 10:37:01 AM 41.8117 -87.4750 95° East 292 336 11,300 2,806 Climbing Chicago Center
Wed 10:38:03 AM 41.7967 -87.3558 100° East 319 367 13,600 2,661 Climbing Chicago Center
Wed 10:39:05 AM 41.7811 -87.2236 99° East 353 406 16,800 2,661 Climbing Chicago Center
Wed 10:40:07 AM 41.7639 -87.0822 99° East 378 435 19,100 2,758 Climbing Chicago Center
Wed 10:41:09 AM 41.7636 -86.8975 90° East 412 474 22,500 2,565 Climbing Chicago Center
Wed 10:42:11 AM 41.7656 -86.7353 89° East 437 503 24,400 1,935 Climbing Chicago Center
Wed 10:43:13 AM 41.7847 -86.5792 81° East 470 541 26,500 2,710 Climbing Chicago Center
Wed 10:44:15 AM 41.8117 -86.3728 80° East 467 537 30,000 2,177 Climbing Chicago Center
Wed 10:45:17 AM 41.8386 -86.2053 78° East 462 532 31,000 581 Climbing Chicago Center
Wed 10:46:19 AM 41.8839 -86.0311 71° East 488 562 31,200 677 Climbing Chicago Center
Wed 10:47:21 AM 41.9297 -85.8431 72° East 522 601 32,400 1,500 Climbing Chicago Center
Wed 10:48:23 AM 41.9756 -85.6519 72° East 532 612 34,300 1,790 Climbing Chicago Center
Wed 10:49:25 AM 42.0208 -85.4478 73° East 520 598 36,100 1,317 Climbing Chicago Center
Wed 10:50:26 AM 42.0247 -85.2714 88° East 517 595 37,000 446 Climbing Cleveland Center
Wed 10:51:26 AM 42.0175 -85.0864 93° East 493 567 37,000  Level Cleveland Center
Wed 10:52:26 AM 42.0081 -84.9011 94° East 499 574 37,000  Level Cleveland Center
Wed 10:53:26 AM 42.0008 -84.6994 93° East 499 574 37,000  Level Cleveland Center
Wed 10:54:26 AM 41.9864 -84.5169 96° East 499 574 37,000  Level Cleveland Center
Wed 10:55:26 AM 41.9833 -84.3544 91° East 494 568 37,000  Level Cleveland Center
Wed 10:56:26 AM 41.9669 -84.1525 96° East 494 568 37,000  Level Cleveland Center
Wed 10:57:26 AM 41.9581 -83.9647 94° East 494 568 37,000  Level Cleveland Center
Wed 10:58:26 AM 41.9486 -83.7828 94° East 494 568 37,000  Level Cleveland Center
Wed 10:59:26 AM 41.9369 -83.6008 95° East 499 574 37,000  Level Cleveland Center
Wed 11:00:26 AM 41.9333 -83.4136 91° East 499 574 37,000  Level Cleveland Center
Wed 11:01:26 AM 41.9314 -83.2292 91° East 499 574 37,000  Level Cleveland Center
Wed 11:02:26 AM 41.9311 -83.0589 90° East 504 580 37,000  Level Cleveland Center
Wed 11:03:26 AM 41.9308 -82.8747 90° East 499 574 37,000  Level Cleveland Center
Wed 11:04:26 AM 41.9281 -82.6847 91° East 499 574 37,000  Level Cleveland Center
Wed 11:05:26 AM 41.9253 -82.4978 91° East 499 574 37,000  Level Cleveland Center
Wed 11:06:27 AM 41.9242 -82.3078 90° East 499 574 37,000  Level Cleveland Center
Wed 11:07:26 AM 41.9206 -82.1236 91° East 499 574 37,000  Level Cleveland Center
Wed 11:08:26 AM 41.9186 -81.9336 91° East 499 574 37,000  Level Cleveland Center
Wed 11:09:26 AM 41.9269 -81.7442 87° East 499 574 37,000  Level Cleveland Center
Wed 11:10:26 AM 41.9497 -81.5294 82° East 512 589 37,000  Level Cleveland Center
Wed 11:11:26 AM 41.9700 -81.3372 82° East 529 609 37,000  Level Cleveland Center
Wed 11:12:26 AM 41.9919 -81.1419 81° East 524 603 37,000  Level Cleveland Center
Wed 11:13:26 AM 42.0156 -80.9464 81° East 526 605 37,000  Level Cleveland Center
Wed 11:14:26 AM 42.0328 -80.7508 83° East 526 605 37,000  Level Cleveland Center
Wed 11:15:26 AM 42.0539 -80.5553 82° East 526 605 37,000  Level Cleveland Center
Wed 11:16:26 AM 42.0744 -80.3594 82° East 521 600 37,000  Level Cleveland Center
Wed 11:17:26 AM 42.0886 -80.1831 84° East 526 605 37,000  Level Cleveland Center
Wed 11:18:26 AM 42.1086 -79.9842 82° East 526 605 37,000  Level Cleveland Center
Wed 11:19:26 AM 42.1283 -79.7936 82° East 521 600 37,000  Level Cleveland Center
Wed 11:20:26 AM 42.1475 -79.6003 82° East 521 600 37,000  Level Cleveland Center
Wed 11:21:26 AM 42.1644 -79.4094 83° East 521 600 37,000  Level Cleveland Center
Wed 11:22:26 AM 42.1792 -79.2214 84° East 521 600 37,000  Level Cleveland Center
Wed 11:23:26 AM 42.1997 -79.0306 82° East 515 593 37,000  Level Cleveland Center
Wed 11:24:26 AM 42.2281 -78.8222 80° East 515 593 37,000  Level Cleveland Center
Wed 11:25:26 AM 42.2519 -78.6308 80° East 515 593 37,000  Level Cleveland Center
Wed 11:26:26 AM 42.2758 -78.4447 80° East 510 587 37,000  Level Cleveland Center
Wed 11:27:26 AM 42.2992 -78.2503 81° East 510 587 37,000  Level Cleveland Center
Wed 11:28:26 AM 42.3222 -78.0614 81° East 510 587 37,000  Level Cleveland Center
Wed 11:29:26 AM 42.3450 -77.8750 81° East 504 580 37,000  Level Cleveland Center
Wed 11:30:26 AM 42.3636 -77.6942 82° East 499 574 37,000  Level Cleveland Center
Wed 11:32:52 AM 42.4119 -77.2750 81° East 496 571 37,000  Level Boston Center
Wed 11:33:52 AM 42.4342 -77.0939 81° East 491 565 37,000  Level Boston Center
Wed 11:34:52 AM 42.4519 -76.9150 82° East 486 559 37,000  Level Boston Center
Wed 11:35:52 AM 42.4711 -76.7389 82° East 479 551 37,000  Level Boston Center
Wed 11:36:52 AM 42.4903 -76.5628 82° East 479 551 37,000  Level Boston Center
Wed 11:37:52 AM 42.5092 -76.3836 82° East 479 551 37,000  Level Boston Center
Wed 11:38:52 AM 42.4714 -76.2011 106° East 461 531 37,000  Level Boston Center
Wed 11:39:52 AM 42.4031 -76.0592 123° Southeast 444 511 37,000 -150 Level Boston Center
Wed 11:40:52 AM 42.3411 -75.9067 119° Southeast 450 518 36,700 -650 Descending Boston Center
Wed 11:41:52 AM 42.3278 -75.7233 96° East 458 527 35,700 -950 Descending Boston Center
Wed 11:42:52 AM 42.3267 -75.5406 90° East 470 541 34,800 -950 Descending Boston Center
Wed 11:43:52 AM 42.3231 -75.3636 92° East 475 547 33,800 -1,000 Descending Boston Center
Wed 11:44:52 AM 42.3233 -75.1864 90° East 475 547 32,800 -1,000 Descending Boston Center
Wed 11:45:52 AM 42.3192 -75.0150 92° East 469 540 31,800 -1,000 Descending Boston Center
Wed 11:46:52 AM 42.3167 -74.8436 91° East 464 534 30,800 -1,000 Descending Boston Center
Wed 11:47:52 AM 42.3117 -74.6778 92° East 458 527 29,800 -900 Descending Boston Center
Wed 11:48:52 AM 42.3086 -74.5092 91° East 447 514 29,000 -400 Descending Boston Center
Wed 11:49:52 AM 42.3053 -74.3433 92° East 442 509 29,000  Level Boston Center
Wed 11:50:52 AM 42.3058 -74.1778 90° East 442 509 29,000 -450 Level Boston Center
Wed 11:51:52 AM 42.3331 -74.0186 77° East 437 503 28,100 -1,000 Descending Boston Center
Wed 11:52:52 AM 42.3603 -73.8589 77° East 437 503 27,000 -1,000 Descending Boston Center
Wed 11:53:52 AM 42.3872 -73.7050 77° East 431 496 26,100 -1,000 Descending Boston Center
Wed 11:54:52 AM 42.3783 -73.5531 94° East 410 472 25,000 -1,050 Descending Boston Center
Wed 11:55:52 AM 42.3400 -73.4147 111° Southeast 396 456 24,000 -1,000 Descending Boston Center
Wed 11:56:52 AM 42.3036 -73.2711 109° East 391 450 23,000 -950 Descending Boston Center
Wed 11:57:52 AM 42.2628 -73.1358 112° Southeast 391 450 22,100 -950 Descending Boston Center
Wed 11:58:52 AM 42.1947 -73.0314 131° Southeast 375 432 21,100 -1,000 Descending Boston Center
Wed 11:59:52 AM 42.1347 -72.9356 130° Southeast 375 432 20,100 -900 Descending Boston Center
Wed 12:00:52 PM 42.0622 -72.8175 130° Southeast 375 432 19,300 -550 Descending Boston Center
Wed 12:01:52 PM 42.0042 -72.7194 129° Southeast 375 432 19,000 -171 Descending Boston Center
Wed 12:02:37 PM 41.9481 -72.6356 132° Southeast 367 422 19,000  Level Boston Center
Wed 12:02:52 PM 41.9292 -72.5992 125° Southeast 375 432 19,000 -800 Level Boston Center
Wed 12:03:52 PM 41.8647 -72.4931 129° Southeast 369 425 18,000 -1,472 Descending Boston Center
Wed 12:04:38 PM 41.8128 -72.4094 130° Southeast 363 418 16,400 -1,907 Descending Boston Center
Wed 12:05:39 PM 41.7439 -72.3039 131° Southeast 370 426 14,600 -1,721 Descending Boston Center
Wed 12:06:40 PM 41.6811 -72.2011 129° Southeast 359 413 12,900 -1,686 Descending Boston Center
Wed 12:07:40 PM 41.6225 -72.1069 130° Southeast 342 394 11,200 -1,190 Descending Boston Center
Wed 12:08:41 PM 41.5639 -72.0128 130° Southeast 327 376 10,500 -1,033 Descending Boston Center
Wed 12:09:42 PM 41.5217 -71.9106 119° Southeast 318 366 9,100 -1,418 Descending Boston Center
Wed 12:11:43 PM 41.5644 -71.7186 73° East 287 330 6,200 -1,326 Descending Boston Center
Wed 12:12:43 PM 41.6225 -71.6514 41° Northeast 279 321 5,100 -545 Descending Boston Center
Wed 12:13:44 PM 41.6867 -71.5950 33° Northeast 265 305 5,100  Level Boston Center
Wed 12:14:45 PM 41.7467 -71.5442 32° Northeast 265 305 5,100 -50 Level Boston Center
Wed 12:15:45 PM 41.7983 -71.4989 33° Northeast 223 257 5,000 -446 Descending Boston Center
Wed 12:16:46 PM 41.8103 -71.4403 75° East 181 208 4,200 -1,279 Descending Boston Center
Wed 12:17:47 PM 41.7911 -71.3847 115° Southeast 175 201 2,400 -1,513 Descending Boston Center
Wed 12:18:41 PM 41.7600 -71.3936 192° South 179 206 1,300 -1,222 Descending Boston Center

Login

Don't have an account? Register now (free) for customized features, flight alerts, and more!